Time;durP1;ratioP1;P1;durP2;ratioP2;P2;SDS_P1;SDS_P2;PMS_P1;PMS_P2;Temp;Humidity;BMP_temperature;BMP_pressure;BME280_temperature;BME280_humidity;BME280_pressure;Samples;Min_cycle;Max_cycle;Signal;HPM_P1;HPM_P2
2022/04/09 00:00:17;;;;;;;;;8.00;6.25;;;;;5.87;54.74;100568.72;4986817;28;45343;-58
2022/04/09 00:02:43;;;;;;;;;6.50;6.50;;;;;5.88;54.53;100567.88;4986761;28;45332;-58
2022/04/09 00:05:11;;;;;;;;;5.75;5.50;;;;;5.88;55.08;100578.31;4987158;28;45239;-58
2022/04/09 00:07:36;;;;;;;;;11.50;7.75;;;;;5.89;54.66;100584.38;4986421;28;45232;-58
2022/04/09 00:10:06;;;;;;;;;3.25;3.25;;;;;5.88;54.89;100583.50;4985268;28;48441;-58
2022/04/09 00:12:32;;;;;;;;;9.00;6.25;;;;;5.86;55.06;100574.81;4986804;28;45437;-59
2022/04/09 00:14:58;;;;;;;;;6.25;6.25;;;;;5.88;54.86;100583.50;4985594;28;45340;-57
2022/04/09 00:17:23;;;;;;;;;6.50;5.25;;;;;5.89;55.25;100586.97;4986714;28;45338;-59
2022/04/09 00:19:48;;;;;;;;;9.25;6.75;;;;;5.89;55.35;100593.09;4986910;28;45313;-59
2022/04/09 00:22:14;;;;;;;;;4.50;4.50;;;;;5.90;55.05;100594.84;4986429;28;45349;-59
2022/04/09 00:24:40;;;;;;;;;4.50;4.50;;;;;5.91;54.86;100593.97;4985482;28;45495;-58
2022/04/09 00:27:06;;;;;;;;;6.25;6.25;;;;;5.92;55.40;100598.28;4986379;28;45187;-59
2022/04/09 00:29:31;;;;;;;;;5.00;5.00;;;;;5.94;55.14;100600.94;4986545;28;46548;-59
2022/04/09 00:31:57;;;;;;;;;6.00;5.00;;;;;5.93;55.45;100605.25;4986376;28;45252;-58
2022/04/09 00:34:22;;;;;;;;;6.25;5.50;;;;;5.95;55.19;100608.75;4985364;28;45304;-58
2022/04/09 00:36:48;;;;;;;;;5.00;5.00;;;;;5.99;55.16;100614.88;4968644;28;45230;-58
2022/04/09 00:39:13;;;;;;;;;4.00;4.00;;;;;5.99;55.21;100605.31;4986251;28;45212;-59
2022/04/09 00:41:47;;;;;;;;;6.00;4.50;;;;;6.03;55.28;100613.16;4986410;28;45254;-58
2022/04/09 00:44:20;;;;;;;;;6.00;5.50;;;;;6.03;55.28;100613.16;4986470;28;45303;-58
2022/04/09 00:46:47;;;;;;;;;2.00;2.00;;;;;6.04;55.29;100610.56;4985055;28;45877;-58
2022/04/09 00:49:13;;;;;;;;;4.25;3.75;;;;;6.05;55.27;100620.13;4986191;28;45247;-58
2022/04/09 00:51:44;;;;;;;;;6.50;5.00;;;;;6.05;55.70;100619.25;4985742;28;45229;-58
2022/04/09 00:54:14;;;;;;;;;5.00;4.00;;;;;6.09;55.14;100631.41;4986288;28;45379;-58
2022/04/09 00:56:41;;;;;;;;;5.00;4.00;;;;;6.06;55.06;100624.44;4986161;28;45306;-58
2022/04/09 00:59:10;;;;;;;;;6.50;4.75;;;;;6.07;55.10;100628.81;4986061;28;45338;-58
2022/04/09 01:01:37;;;;;;;;;8.00;6.00;;;;;6.08;55.24;100633.16;4986111;28;45273;-58
2022/04/09 01:04:11;;;;;;;;;4.25;4.25;;;;;6.10;55.17;100628.84;4986380;28;45290;-58
2022/04/09 01:06:38;;;;;;;;;3.25;3.00;;;;;6.11;55.52;100627.09;4985800;28;45207;-58
2022/04/09 01:09:05;;;;;;;;;7.75;5.50;;;;;6.11;55.19;100625.38;4982014;28;47071;-58
2022/04/09 01:11:31;;;;;;;;;5.00;4.00;;;;;6.10;55.41;100626.22;4982765;28;45295;-59
2022/04/09 01:13:57;;;;;;;;;4.00;4.00;;;;;6.15;55.43;100628.81;4982818;28;45368;-58
2022/04/09 01:16:24;;;;;;;;;10.50;3.00;;;;;6.14;55.36;100627.97;4982856;28;45326;-58
2022/04/09 01:18:49;;;;;;;;;4.75;4.75;;;;;6.18;55.43;100632.31;4982623;28;46376;-58
2022/04/09 01:21:15;;;;;;;;;4.00;4.00;;;;;6.20;55.22;100628.84;4982604;28;45279;-58
2022/04/09 01:23:40;;;;;;;;;5.25;4.75;;;;;6.23;55.28;100634.94;4981274;28;45370;-58
2022/04/09 01:26:06;;;;;;;;;4.25;4.25;;;;;6.26;55.43;100637.53;4982604;28;45360;-58
2022/04/09 01:28:33;;;;;;;;;5.25;5.25;;;;;6.28;55.34;100637.56;4982508;28;46180;-58
2022/04/09 01:30:59;;;;;;;;;5.75;4.50;;;;;6.28;55.49;100646.25;4982518;28;45377;-58
2022/04/09 01:33:25;;;;;;;;;4.00;4.00;;;;;6.31;55.58;100646.28;4982555;28;45284;-58
2022/04/09 01:35:51;;;;;;;;;5.00;3.25;;;;;6.34;55.42;100648.88;4982578;28;45357;-58
2022/04/09 01:38:17;;;;;;;;;7.75;7.75;;;;;6.37;55.35;100648.00;4982101;28;45416;-58
2022/04/09 01:40:43;;;;;;;;;3.00;3.00;;;;;6.39;55.50;100653.22;4982177;28;45396;-58
2022/04/09 01:43:08;;;;;;;;;2.50;2.50;;;;;6.41;55.37;100657.59;4982482;28;45357;-59
2022/04/09 01:45:35;;;;;;;;;3.75;3.75;;;;;6.41;55.35;100657.59;4982442;28;45591;-58
2022/04/09 01:48:00;;;;;;;;;4.00;4.00;;;;;6.44;55.64;100652.38;4980891;28;47327;-58
2022/04/09 01:50:26;;;;;;;;;5.00;4.50;;;;;6.48;55.60;100659.34;4981954;28;45392;-58
2022/04/09 01:52:54;;;;;;;;;2.00;2.00;;;;;6.49;55.45;100654.97;4982206;28;45328;-58
2022/04/09 01:55:20;;;;;;;;;5.00;3.75;;;;;6.52;55.33;100655.00;4982202;28;45579;-58
2022/04/09 01:57:47;;;;;;;;;1.25;1.25;;;;;6.55;55.13;100664.56;4982033;28;47315;-58
2022/04/09 02:00:14;;;;;;;;;3.25;2.50;;;;;6.57;55.21;100668.06;4982073;28;45316;-58
2022/04/09 02:02:40;;;;;;;;;1.00;1.00;;;;;6.58;54.97;100668.06;4981996;28;45337;-58
2022/04/09 02:05:06;;;;;;;;;1.25;1.25;;;;;6.61;54.73;100670.66;4982212;28;45187;-58
2022/04/09 02:07:32;;;;;;;;;2.75;2.50;;;;;6.60;54.82;100673.28;4981401;28;45477;-58
2022/04/09 02:09:57;;;;;;;;;3.25;2.75;;;;;6.64;54.83;100681.13;4982046;28;45148;-58
2022/04/09 02:12:23;;;;;;;;;2.75;2.00;;;;;6.62;54.89;100692.44;4982056;28;45161;-58
2022/04/09 02:14:49;;;;;;;;;3.00;2.50;;;;;6.66;54.83;100699.41;4982130;28;45184;-58
2022/04/09 02:17:14;;;;;;;;;2.50;2.50;;;;;6.65;54.84;100695.94;4981763;28;45264;-58
2022/04/09 02:19:39;;;;;;;;;4.75;4.25;;;;;6.69;54.94;100699.41;4981677;28;45387;-59
2022/04/09 02:22:05;;;;;;;;;3.50;3.25;;;;;6.69;54.89;100688.94;4979527;28;45292;-59
2022/04/09 02:24:31;;;;;;;;;4.00;3.00;;;;;6.70;54.74;100695.06;4980464;28;45333;-59
2022/04/09 02:26:57;;;;;;;;;4.00;3.00;;;;;6.70;54.84;100695.06;4980166;28;48216;-60
2022/04/09 02:29:22;;;;;;;;;3.00;3.00;;;;;6.70;54.99;100693.31;4980434;28;45498;-61
2022/04/09 02:31:48;;;;;;;;;3.25;3.00;;;;;6.71;54.86;100697.66;4980347;28;45392;-58
2022/04/09 02:34:14;;;;;;;;;3.50;3.50;;;;;6.71;54.97;100708.13;4980283;28;45327;-59
2022/04/09 02:36:39;;;;;;;;;3.50;3.50;;;;;6.73;54.95;100710.72;4981468;28;45318;-62
2022/04/09 02:39:05;;;;;;;;;3.00;2.00;;;;;6.75;54.96;100714.22;4981470;28;45386;-59
2022/04/09 02:41:31;;;;;;;;;4.50;3.25;;;;;6.74;54.90;100708.13;4980264;28;45492;-59
2022/04/09 02:43:57;;;;;;;;;3.00;1.25;;;;;6.76;54.56;100711.59;4981521;28;45580;-59
2022/04/09 02:46:23;;;;;;;;;3.25;3.25;;;;;6.75;54.85;100715.06;4981311;28;46182;-59
2022/04/09 02:48:48;;;;;;;;;4.00;4.00;;;;;6.75;54.81;100725.53;4981174;28;45255;-59
2022/04/09 02:51:13;;;;;;;;;2.75;2.75;;;;;6.73;54.81;100729.91;4981404;28;45480;-59
2022/04/09 02:53:39;;;;;;;;;3.00;3.00;;;;;6.75;54.63;100740.34;4981162;28;45572;-59
2022/04/09 02:56:05;;;;;;;;;4.50;4.50;;;;;6.73;54.64;100737.72;4963529;28;46037;-59
2022/04/09 02:58:30;;;;;;;;;4.25;4.25;;;;;6.71;54.74;100742.06;4981123;28;45496;-59
2022/04/09 03:00:56;;;;;;;;;4.00;4.00;;;;;6.72;54.86;100738.59;4981306;28;45431;-60
2022/04/09 03:03:21;;;;;;;;;4.50;3.00;;;;;6.72;54.76;100741.19;4981048;28;45298;-59
2022/04/09 03:05:47;;;;;;;;;4.00;4.00;;;;;6.71;54.80;100738.59;4981067;28;46650;-59
2022/04/09 03:08:13;;;;;;;;;3.75;3.75;;;;;6.66;54.76;100730.75;4980715;28;45367;-61
2022/04/09 03:10:38;;;;;;;;;5.25;3.75;;;;;6.68;54.43;100742.06;4981084;28;45334;-60
2022/04/09 03:13:07;;;;;;;;;7.75;6.00;;;;;6.66;54.71;100749.03;4980965;28;45419;-59
2022/04/09 03:15:32;;;;;;;;;5.25;4.75;;;;;6.62;54.61;100744.66;4980962;28;45423;-59
2022/04/09 03:17:57;;;;;;;;;6.00;4.00;;;;;6.64;54.71;100754.25;4980935;28;45150;-59
2022/04/09 03:20:23;;;;;;;;;5.50;5.50;;;;;6.62;54.70;100763.81;4980977;28;45167;-59
2022/04/09 03:22:49;;;;;;;;;9.25;6.00;;;;;6.63;54.69;100777.75;4980463;28;45151;-59
2022/04/09 03:25:15;;;;;;;;;6.50;5.25;;;;;6.63;54.96;100773.41;4980726;28;45297;-59
2022/04/09 03:27:41;;;;;;;;;8.00;8.00;;;;;6.63;54.77;100786.44;4980601;28;45387;-59
2022/04/09 03:30:08;;;;;;;;;6.00;5.00;;;;;6.63;54.89;100793.44;4980823;28;45344;-59
2022/04/09 03:32:36;;;;;;;;;9.75;8.75;;;;;6.62;54.99;100789.06;4978900;28;45344;-59
2022/04/09 03:35:06;;;;;;;;;8.75;6.00;;;;;6.60;54.92;100788.19;4980532;28;45918;-59
2022/04/09 03:37:35;;;;;;;;;10.00;7.50;;;;;6.59;55.05;100787.31;4980400;28;45539;-61
2022/04/09 03:40:02;;;;;;;;;8.75;6.00;;;;;6.59;54.50;100792.53;4980279;28;45375;-60
2022/04/09 03:42:27;;;;;;;;;9.00;8.00;;;;;6.52;54.97;100771.63;4980769;28;45192;-60
2022/04/09 03:44:53;;;;;;;;;7.25;6.00;;;;;6.54;54.86;100781.22;4980385;28;45428;-60
2022/04/09 03:47:18;;;;;;;;;7.25;7.25;;;;;6.49;54.95;100782.91;4980718;28;45269;-60
2022/04/09 03:49:43;;;;;;;;;9.75;7.50;;;;;6.43;54.93;100781.16;4980548;28;45254;-60
2022/04/09 03:52:09;;;;;;;;;7.75;7.00;;;;;6.45;55.20;100804.66;4979000;28;45194;-60
2022/04/09 03:54:37;;;;;;;;;6.75;6.75;;;;;6.41;54.94;100811.59;4980246;28;45520;-59
2022/04/09 03:57:03;;;;;;;;;7.75;7.00;;;;;6.37;54.99;100816.81;4980366;28;45409;-59
2022/04/09 03:59:28;;;;;;;;;9.25;9.25;;;;;6.35;55.04;100816.78;4980375;28;45499;-60
2022/04/09 04:01:53;;;;;;;;;10.50;9.50;;;;;6.32;55.05;100822.03;4980486;28;45448;-60
2022/04/09 04:04:19;;;;;;;;;10.25;8.25;;;;;6.27;55.18;100816.75;4980157;28;46113;-60
2022/04/09 04:06:45;;;;;;;;;10.50;10.00;;;;;6.24;54.92;100815.88;4980269;28;45277;-60
2022/04/09 04:09:12;;;;;;;;;10.50;9.25;;;;;6.25;55.04;100817.63;4980138;28;45247;-59
2022/04/09 04:11:37;;;;;;;;;6.75;6.75;;;;;6.22;55.34;100821.09;4980377;28;45392;-59
2022/04/09 04:14:04;;;;;;;;;5.00;5.00;;;;;6.23;55.13;100816.75;4980019;28;45183;-59
2022/04/09 04:16:29;;;;;;;;;9.00;7.25;;;;;6.21;55.31;100810.66;4980481;28;45249;-59
2022/04/09 04:18:55;;;;;;;;;5.00;5.00;;;;;6.21;55.16;100805.44;4978901;28;45248;-59
2022/04/09 04:21:20;;;;;;;;;5.50;5.00;;;;;6.20;55.23;100815.00;4980061;28;45500;-59
2022/04/09 04:23:45;;;;;;;;;4.75;4.25;;;;;6.20;55.18;100821.94;4979773;28;47094;-59
2022/04/09 04:26:11;;;;;;;;;4.00;4.00;;;;;6.20;55.48;100821.94;4978784;28;45484;-59
2022/04/09 04:28:36;;;;;;;;;3.50;3.25;;;;;6.21;55.23;100818.47;4980119;28;45324;-60
2022/04/09 04:31:02;;;;;;;;;4.75;4.75;;;;;6.19;55.55;100808.03;4980135;28;45235;-60
2022/04/09 04:33:27;;;;;;;;;2.00;2.00;;;;;6.17;55.42;100808.00;4979895;28;45320;-59
2022/04/09 04:35:53;;;;;;;;;4.00;4.00;;;;;6.20;55.37;100815.00;4980068;28;45337;-59
2022/04/09 04:38:18;;;;;;;;;5.00;4.50;;;;;6.21;55.61;100821.94;4979729;28;45262;-59
2022/04/09 04:40:43;;;;;;;;;4.75;4.75;;;;;6.18;55.33;100828.03;4979870;28;45330;-59
2022/04/09 04:43:09;;;;;;;;;4.75;3.25;;;;;6.22;55.54;100825.44;4979884;28;46008;-59
2022/04/09 04:45:34;;;;;;;;;5.00;5.00;;;;;6.21;55.57;100827.16;4982979;28;45418;-59
2022/04/09 04:47:59;;;;;;;;;7.50;5.50;;;;;6.21;55.42;100821.94;4982125;28;45327;-59
2022/04/09 04:50:26;;;;;;;;;6.50;5.25;;;;;6.24;55.66;100819.38;4982888;28;45442;-59
2022/04/09 04:52:51;;;;;;;;;4.00;4.00;;;;;6.25;55.41;100822.84;4983037;28;46162;-59
2022/04/09 04:55:17;;;;;;;;;5.25;5.25;;;;;6.22;55.65;100815.88;4983136;28;45234;-58
2022/04/09 04:57:47;;;;;;;;;5.00;5.00;;;;;6.25;55.74;100815.00;4983370;28;45198;-59
2022/04/09 05:00:16;;;;;;;;;5.50;5.50;;;;;6.26;55.57;100825.44;4983143;28;45330;-59
2022/04/09 05:02:42;;;;;;;;;5.00;5.00;;;;;6.26;55.25;100819.38;4982746;28;46956;-59
2022/04/09 05:05:08;;;;;;;;;5.00;4.75;;;;;6.28;55.76;100834.19;4983418;28;45203;-59
2022/04/09 05:07:39;;;;;;;;;19.00;16.00;;;;;6.28;55.73;100835.94;4982654;28;45271;-58
2022/04/09 05:10:07;;;;;;;;;9.00;9.00;;;;;6.29;55.60;100841.16;4982740;28;45331;-59
2022/04/09 05:12:34;;;;;;;;;10.00;7.75;;;;;6.29;55.78;100843.75;4982521;28;47678;-59
2022/04/09 05:14:59;;;;;;;;;8.50;7.00;;;;;6.30;55.71;100842.91;4982949;28;45302;-59
2022/04/09 05:17:24;;;;;;;;;6.00;6.00;;;;;6.31;55.49;100841.16;4982790;28;45365;-59
2022/04/09 05:19:50;;;;;;;;;4.25;4.00;;;;;6.30;55.74;100836.78;4981602;28;45552;-58
2022/04/09 05:22:15;;;;;;;;;15.00;12.25;;;;;6.33;55.63;100847.25;4982370;28;46941;-59
2022/04/09 05:24:41;;;;;;;;;23.25;20.75;;;;;6.33;55.66;100844.66;4982621;28;45354;-59
2022/04/09 05:27:06;;;;;;;;;5.75;5.75;;;;;6.34;55.88;100849.00;4982661;28;45299;-58
2022/04/09 05:29:31;;;;;;;;;6.00;6.00;;;;;6.36;55.53;100851.63;4982792;28;45777;-59
2022/04/09 05:31:57;;;;;;;;;7.75;7.75;;;;;6.36;55.83;100849.00;4982429;28;45377;-58
2022/04/09 05:34:22;;;;;;;;;10.25;10.25;;;;;6.37;55.73;100849.00;4982581;28;45297;-58
2022/04/09 05:36:47;;;;;;;;;8.75;6.00;;;;;6.38;55.67;100853.38;4982263;28;45330;-59
2022/04/09 05:39:15;;;;;;;;;6.75;6.75;;;;;6.38;55.71;100848.16;4982422;28;45516;-59
2022/04/09 05:41:41;;;;;;;;;9.25;8.00;;;;;6.40;55.74;100841.22;4982263;28;46348;-59
2022/04/09 05:44:06;;;;;;;;;7.25;7.25;;;;;6.42;55.83;100847.28;4982644;28;45239;-60
2022/04/09 05:46:32;;;;;;;;;7.25;7.25;;;;;6.42;55.51;100847.28;4981039;28;45188;-59
2022/04/09 05:48:57;;;;;;;;;10.00;10.00;;;;;6.42;55.73;100842.06;4982281;28;45325;-59
2022/04/09 05:51:24;;;;;;;;;6.25;6.25;;;;;6.37;55.63;100851.63;4981541;28;46427;-59
2022/04/09 05:53:49;;;;;;;;;10.50;10.00;;;;;6.40;55.81;100858.59;4981133;28;45249;-59
2022/04/09 05:56:15;;;;;;;;;11.00;11.00;;;;;6.37;55.43;100864.69;4981776;28;45148;-59
2022/04/09 05:58:42;;;;;;;;;13.50;11.00;;;;;6.38;55.87;100866.44;4982354;28;45187;-59
2022/04/09 06:01:07;;;;;;;;;13.50;12.00;;;;;6.37;55.37;100869.03;4980834;28;47059;-59
2022/04/09 06:03:33;;;;;;;;;12.50;12.50;;;;;6.37;55.85;100880.34;4982133;28;45385;-59
2022/04/09 06:05:58;;;;;;;;;15.00;14.00;;;;;6.39;55.70;100880.34;4982247;28;45351;-59
2022/04/09 06:08:24;;;;;;;;;10.00;9.50;;;;;6.40;55.80;100889.91;4981792;28;45392;-59
2022/04/09 06:10:49;;;;;;;;;11.75;11.25;;;;;6.43;55.75;100892.56;4981731;28;45369;-58
2022/04/09 06:13:15;;;;;;;;;14.50;12.00;;;;;6.46;55.61;100897.78;4980666;28;45239;-59
2022/04/09 06:15:41;;;;;;;;;9.50;9.50;;;;;6.47;55.68;100894.31;4982180;28;45243;-60
2022/04/09 06:18:08;;;;;;;;;16.00;13.00;;;;;6.48;55.90;100893.47;4982000;28;45521;-59
2022/04/09 06:20:33;;;;;;;;;14.00;14.00;;;;;6.49;55.90;100893.47;4981416;28;46008;-58
2022/04/09 06:22:59;;;;;;;;;13.75;12.75;;;;;6.52;56.02;100897.81;4981543;28;45182;-58
2022/04/09 06:25:25;;;;;;;;;16.75;14.75;;;;;6.54;55.90;100903.94;4981725;28;45186;-59
2022/04/09 06:27:51;;;;;;;;;13.00;11.75;;;;;6.56;55.97;100910.03;4980638;28;45385;-58
2022/04/09 06:30:16;;;;;;;;;17.75;14.50;;;;;6.60;55.94;100913.53;4981484;28;46270;-58
2022/04/09 06:32:42;;;;;;;;;15.50;15.25;;;;;6.63;56.01;100913.56;4981579;28;45318;-60
2022/04/09 06:35:08;;;;;;;;;17.50;15.75;;;;;6.64;55.94;100908.34;4981694;28;45361;-59
2022/04/09 06:37:38;;;;;;;;;19.75;18.50;;;;;6.69;55.98;100921.38;4980036;28;45683;-59
2022/04/09 06:40:06;;;;;;;;;20.25;18.75;;;;;6.72;56.03;100924.03;4981044;28;45488;-59
2022/04/09 06:42:31;;;;;;;;;19.50;19.00;;;;;6.75;56.23;100924.03;4981559;28;45330;-59
2022/04/09 06:44:58;;;;;;;;;19.00;16.50;;;;;6.76;55.85;100928.41;4980048;28;45324;-59
2022/04/09 06:47:23;;;;;;;;;20.25;18.75;;;;;6.77;56.08;100926.69;4981362;28;45389;-59
2022/04/09 06:49:49;;;;;;;;;23.75;20.75;;;;;6.84;56.21;100938.88;4981247;28;45562;-59
2022/04/09 06:52:14;;;;;;;;;19.25;18.75;;;;;6.85;56.12;100931.94;4980941;28;45450;-59
2022/04/09 06:54:41;;;;;;;;;15.00;14.50;;;;;6.89;56.15;100933.69;4981159;28;45495;-59
2022/04/09 06:57:06;;;;;;;;;11.00;11.00;;;;;6.91;56.41;100939.78;4981371;28;45489;-59
2022/04/09 06:59:31;;;;;;;;;16.25;14.75;;;;;6.96;56.20;100945.91;4981037;28;46190;-59
2022/04/09 07:01:56;;;;;;;;;19.75;18.00;;;;;6.99;56.17;100945.91;4981220;28;45243;-59
2022/04/09 07:04:22;;;;;;;;;18.75;15.50;;;;;7.04;56.07;100951.16;4981096;28;45166;-59
2022/04/09 07:06:47;;;;;;;;;17.75;17.75;;;;;7.07;56.12;100953.78;4978944;28;45456;-59
2022/04/09 07:09:13;;;;;;;;;15.75;14.25;;;;;7.10;56.06;100964.25;4995745;28;47198;-59
2022/04/09 07:11:38;;;;;;;;;21.75;20.50;;;;;7.09;56.08;100952.03;4979832;28;45454;-59
2022/04/09 07:14:04;;;;;;;;;15.75;14.75;;;;;7.13;56.16;100959.91;4981074;28;45496;-59
2022/04/09 07:16:30;;;;;;;;;13.00;12.75;;;;;7.15;56.24;100955.53;4980925;28;45168;-59
2022/04/09 07:18:55;;;;;;;;;17.75;15.25;;;;;7.18;56.07;100965.13;4995830;28;46965;-59
2022/04/09 07:21:21;;;;;;;;;13.25;12.25;;;;;7.20;56.13;100965.16;4980678;28;45362;-58
2022/04/09 07:23:46;;;;;;;;;14.50;11.50;;;;;7.21;55.91;100970.38;4980962;28;45346;-59
2022/04/09 07:26:11;;;;;;;;;12.75;12.25;;;;;7.21;56.28;100965.16;4980687;28;45375;-59
2022/04/09 07:28:37;;;;;;;;;14.50;12.50;;;;;7.23;56.04;100963.44;4979303;28;46144;-59
2022/04/09 07:31:02;;;;;;;;;10.50;10.25;;;;;7.25;56.13;100969.53;4980554;28;45324;-58
2022/04/09 07:33:28;;;;;;;;;9.75;9.75;;;;;7.25;56.23;100966.03;4980740;28;45440;-58
2022/04/09 07:35:53;;;;;;;;;9.25;9.25;;;;;7.26;56.34;100966.03;4980502;28;45324;-59
2022/04/09 07:38:19;;;;;;;;;13.25;12.00;;;;;7.29;56.28;100970.41;4980100;28;45969;-58
2022/04/09 07:40:44;;;;;;;;;8.75;7.00;;;;;7.31;56.40;100976.53;4980549;28;45416;-59
2022/04/09 07:43:10;;;;;;;;;10.25;6.50;;;;;7.34;56.05;100980.91;4979272;28;45373;-58
2022/04/09 07:45:35;;;;;;;;;6.75;6.75;;;;;7.35;56.08;100985.25;4980625;28;45584;-58
2022/04/09 07:48:02;;;;;;;;;10.75;7.50;;;;;7.35;56.09;100980.03;4978810;28;46765;-58
2022/04/09 07:50:28;;;;;;;;;6.75;6.75;;;;;7.35;55.84;100983.50;4980251;28;45547;-58
2022/04/09 07:52:55;;;;;;;;;7.00;7.00;;;;;7.37;56.01;100980.88;4980359;28;45440;-58
2022/04/09 07:55:20;;;;;;;;;9.75;9.00;;;;;7.38;56.09;100985.25;4979093;28;45391;-58
2022/04/09 07:57:50;;;;;;;;;6.75;5.50;;;;;7.39;56.05;100990.47;4978958;28;47341;-58
2022/04/09 08:00:17;;;;;;;;;5.00;5.00;;;;;7.41;55.75;100987.84;4980226;28;45365;-59
2022/04/09 08:02:43;;;;;;;;;7.50;7.25;;;;;7.46;55.74;100991.38;4980250;28;45314;-58
2022/04/09 08:05:12;;;;;;;;;11.25;9.25;;;;;7.50;55.86;100998.38;4979042;28;45260;-61
2022/04/09 08:07:39;;;;;;;;;6.00;6.00;;;;;7.52;55.83;100990.50;4979918;28;46343;-58
2022/04/09 08:10:06;;;;;;;;;9.75;9.75;;;;;7.54;55.90;100994.03;4980095;28;45407;-58
2022/04/09 08:12:31;;;;;;;;;11.00;10.00;;;;;7.58;56.04;101001.00;4980189;28;45281;-58
2022/04/09 08:14:57;;;;;;;;;10.00;9.25;;;;;7.60;56.02;101005.34;4978944;28;45512;-58
2022/04/09 08:17:23;;;;;;;;;9.75;7.75;;;;;7.66;56.10;101009.75;4978826;28;46851;-60
2022/04/09 08:19:48;;;;;;;;;9.00;8.75;;;;;7.70;56.18;101006.25;4983809;28;45357;-58
2022/04/09 08:22:14;;;;;;;;;8.75;8.25;;;;;7.76;56.04;101002.75;4983424;28;45851;-58
2022/04/09 08:24:41;;;;;;;;;9.75;9.75;;;;;7.80;56.06;101007.16;4983467;28;45233;-59
2022/04/09 08:27:09;;;;;;;;;8.25;7.25;;;;;7.78;55.88;100998.41;4983220;28;45519;-58
2022/04/09 08:29:35;;;;;;;;;11.00;10.00;;;;;7.88;55.95;101007.16;4983320;28;45314;-58
2022/04/09 08:32:01;;;;;;;;;11.25;10.50;;;;;7.91;56.12;101004.53;4983216;28;45251;-58
2022/04/09 08:34:29;;;;;;;;;9.00;7.00;;;;;7.94;56.08;101015.03;4982361;28;45260;-59
2022/04/09 08:36:56;;;;;;;;;14.50;13.00;;;;;7.97;56.12;101015.00;4981548;28;45424;-59
2022/04/09 08:39:21;;;;;;;;;11.00;8.50;;;;;8.00;55.74;101020.25;4983114;28;45370;-59
2022/04/09 08:41:49;;;;;;;;;11.75;11.75;;;;;8.02;55.75;101025.50;4983265;28;45339;-59
2022/04/09 08:44:15;;;;;;;;;10.00;10.00;;;;;8.02;55.74;101021.13;4983579;28;45272;-59
2022/04/09 08:46:40;;;;;;;;;11.75;11.25;;;;;8.02;55.64;101028.97;4982899;28;47096;-59
2022/04/09 08:49:07;;;;;;;;;10.75;10.75;;;;;8.03;55.60;101033.34;4983013;28;45270;-59
2022/04/09 08:51:33;;;;;;;;;14.00;11.00;;;;;8.06;55.57;101032.47;4981590;28;45477;-59
2022/04/09 08:54:03;;;;;;;;;10.25;10.25;;;;;8.07;55.57;101039.44;4982915;28;45582;-58
2022/04/09 08:56:29;;;;;;;;;12.25;12.00;;;;;8.08;55.73;101049.91;4981479;28;45484;-58
2022/04/09 08:58:58;;;;;;;;;14.00;10.75;;;;;8.11;55.48;101046.44;4981639;28;45449;-58
2022/04/09 09:01:24;;;;;;;;;12.50;12.50;;;;;8.11;55.52;101055.16;4981456;28;45244;-59
2022/04/09 09:03:50;;;;;;;;;8.50;8.00;;;;;8.14;55.77;101049.94;4982932;28;45271;-59
2022/04/09 09:06:38;;;;;;;;;18.25;17.00;;;;;8.15;55.62;101045.59;4982407;28;46063;-58
2022/04/09 09:09:05;;;;;;;;;11.25;10.00;;;;;8.19;55.50;101047.31;4982708;28;45402;-60
2022/04/09 09:11:47;;;;;;;;;11.25;10.75;;;;;8.24;55.26;101057.81;4981142;28;45392;-57
2022/04/09 09:14:28;;;;;;;;;14.50;12.00;;;;;8.27;55.56;101055.16;4982165;28;45411;-59
2022/04/09 09:16:54;;;;;;;;;11.75;9.75;;;;;8.32;55.17;101061.28;4982675;28;46110;-58
2022/04/09 09:19:21;;;;;;;;;11.00;10.00;;;;;8.36;55.35;101064.78;4982468;28;45230;-58
2022/04/09 09:21:55;;;;;;;;;9.50;8.75;;;;;8.39;55.47;101062.16;4982483;28;45338;-58
2022/04/09 09:24:21;;;;;;;;;10.50;10.50;;;;;8.41;55.52;101061.28;4980061;28;45501;-58
2022/04/09 09:26:58;;;;;;;;;11.50;9.50;;;;;8.45;55.50;101064.75;4980360;28;46932;-58
2022/04/09 09:29:27;;;;;;;;;11.50;10.25;;;;;8.49;55.35;101068.28;4981721;28;45498;-58
2022/04/09 09:31:53;;;;;;;;;12.75;10.50;;;;;8.52;55.20;101070.94;4982538;28;45241;-58
2022/04/09 09:34:19;;;;;;;;;10.75;10.75;;;;;8.55;55.22;101079.66;4982390;28;45237;-59
2022/04/09 09:36:46;;;;;;;;;11.50;10.50;;;;;8.58;55.37;101070.94;4980621;28;45822;-58
2022/04/09 09:39:13;;;;;;;;;11.00;8.25;;;;;8.62;55.29;101078.75;4981982;28;45346;-58
2022/04/09 09:41:53;;;;;;;;;9.50;9.50;;;;;8.69;55.41;101086.63;4982231;28;45314;-59
2022/04/09 09:44:20;;;;;;;;;11.00;9.50;;;;;8.73;55.19;101099.72;4981985;28;45371;-59
2022/04/09 09:46:49;;;;;;;;;9.50;8.50;;;;;8.81;55.01;101098.84;4981680;28;46115;-58
2022/04/09 09:49:15;;;;;;;;;13.25;12.50;;;;;8.83;55.04;101105.84;4980987;28;45879;-59
2022/04/09 09:51:42;;;;;;;;;13.50;10.00;;;;;8.88;55.14;101109.31;4964038;28;45417;-59
2022/04/09 09:54:13;;;;;;;;;11.00;11.00;;;;;8.96;55.32;101104.06;4979628;28;45468;-59
2022/04/09 09:56:44;;;;;;;;;11.50;9.75;;;;;9.02;55.28;101106.69;4981207;28;46331;-59
2022/04/09 09:59:12;;;;;;;;;12.50;12.00;;;;;9.09;55.29;101113.66;4980733;28;45275;-59
2022/04/09 10:01:39;;;;;;;;;14.25;14.00;;;;;9.16;55.23;101117.13;4981954;28;45376;-59
2022/04/09 10:04:06;;;;;;;;;13.00;11.25;;;;;9.22;55.01;101117.13;4980187;28;45525;-59
2022/04/09 10:06:34;;;;;;;;;14.25;13.75;;;;;9.28;55.07;101126.72;4980974;28;47341;-58
2022/04/09 10:09:00;;;;;;;;;15.50;13.25;;;;;9.32;55.04;101122.34;4980458;28;45276;-58
2022/04/09 10:11:27;;;;;;;;;14.50;14.50;;;;;9.36;54.74;101135.44;4981805;28;45390;-58
2022/04/09 10:13:55;;;;;;;;;11.75;11.75;;;;;9.37;54.85;101144.16;4981824;28;45465;-58
2022/04/09 10:16:23;;;;;;;;;13.50;12.00;;;;;9.42;54.72;101145.91;4981450;28;45214;-59
2022/04/09 10:18:49;;;;;;;;;14.25;13.00;;;;;9.43;54.73;101149.41;4981655;28;45174;-58
2022/04/09 10:21:16;;;;;;;;;12.50;11.25;;;;;9.44;54.49;101153.78;4981508;28;45366;-58
2022/04/09 10:23:43;;;;;;;;;11.25;9.25;;;;;9.44;54.47;101165.13;4981585;28;45322;-58
2022/04/09 10:26:09;;;;;;;;;15.50;13.50;;;;;9.44;54.45;101162.50;4981214;28;45359;-59
2022/04/09 10:28:38;;;;;;;;;14.25;12.25;;;;;9.47;54.44;101163.38;4980309;28;45358;-58
2022/04/09 10:31:39;;;;;;;;;13.75;11.25;;;;;9.49;54.30;101166.88;4981782;28;45243;-59
2022/04/09 10:34:10;;;;;;;;;14.00;14.00;;;;;9.50;54.34;101169.50;4944868;28;45473;-58
2022/04/09 10:36:45;;;;;;;;;14.50;14.00;;;;;9.55;54.21;101170.34;4981042;28;46265;-58
2022/04/09 10:39:21;;;;;;;;;12.75;11.50;;;;;9.57;54.19;101168.63;4981127;28;45369;-58
2022/04/09 10:41:47;;;;;;;;;14.25;13.75;;;;;9.61;54.31;101169.47;4995314;28;45452;-58
2022/04/09 10:44:45;;;;;;;;;9.75;9.75;;;;;9.67;54.25;101172.09;4981405;28;45530;-59
2022/04/09 10:47:13;;;;;;;;;20.25;20.00;;;;;9.71;54.36;101168.56;4979788;28;45568;-58
2022/04/09 10:49:39;;;;;;;;;15.75;15.00;;;;;9.76;54.36;101177.28;4980979;28;45241;-58
2022/04/09 10:52:11;;;;;;;;;14.25;13.00;;;;;9.79;54.04;101184.28;4979698;28;45340;-59
2022/04/09 10:54:36;;;;;;;;;10.75;9.50;;;;;9.83;54.01;101185.16;4981018;28;45520;-59
2022/04/09 10:57:09;;;;;;;;;12.75;12.50;;;;;9.84;53.85;101190.38;4981161;28;46249;-59
2022/04/09 10:59:36;;;;;;;;;11.25;11.25;;;;;9.84;53.92;101187.75;4981059;28;45305;-60
2022/04/09 11:02:04;;;;;;;;;15.25;13.75;;;;;9.84;53.68;101189.53;4981185;28;45303;-59
2022/04/09 11:04:29;;;;;;;;;17.00;15.00;;;;;9.82;53.93;101184.25;4980856;28;45262;-59
2022/04/09 11:07:18;;;;;;;;;12.25;11.50;;;;;9.79;53.79;101194.78;4980846;28;45255;-59
2022/04/09 11:09:45;;;;;;;;;15.75;13.75;;;;;9.75;53.77;101196.53;4980726;28;45441;-59
2022/04/09 11:12:11;;;;;;;;;14.50;14.50;;;;;9.74;53.42;101207.03;4981015;28;45448;-59
2022/04/09 11:14:45;;;;;;;;;16.00;15.75;;;;;9.70;53.47;101207.94;4980839;28;45309;-59
2022/04/09 11:17:20;;;;;;;;;15.50;14.75;;;;;9.64;53.46;101211.44;4980907;28;46275;-59
2022/04/09 11:19:47;;;;;;;;;9.75;8.50;;;;;9.62;53.40;101213.19;4980881;28;45447;-58
2022/04/09 11:22:12;;;;;;;;;15.25;15.25;;;;;9.58;53.54;101221.94;4980507;28;45317;-59
2022/04/09 11:24:39;;;;;;;;;19.50;16.00;;;;;9.54;53.39;101218.47;4980687;28;45248;-59